• Join FlightAware (Why Join?)
  • Login
  • US Flag 
09:35AM EDT


 

Airport Tracker/Info


-or-


 

Live Flight TrackerFlight Track Log ✈ VH-AGG ✈ 04-May-2012 ✈ YSBK / BWU - YSBK / BWU

Flight Track Log - Related Links

Times and Time Zones

All times are in EDT time to prevent confusion due to time zone crossing. See the VH-AGG flight status page for this flight to view local times or setup timezone preferences in your user account.

Time Position Orientation Groundspeed Altitude Reporting Facility
EDT Latitude Longitude Course Direction KTS MPH feet Rate Location/Type
07:21PM -33.9244 150.9884 310° West 3,000  Level Aus ATC (Calculated)
07:21PM -33.9030 150.9576 307° West 91 105 1,000 -840 Descending Aus ATC (RADAR)
07:22PM -33.8917 150.9396 309° West 82 94 1,900 960 Climbing Aus ATC (RADAR)
07:22PM -33.8840 150.9280 333° Northwest 84 97 2,200 480 Climbing Aus ATC (RADAR)
07:24PM -33.8474 150.9053 11° North 113 130 3,100 300 Climbing Aus ATC (RADAR)
07:25PM -33.8196 150.9119 14° North 123 142 3,000 -60 Descending Aus ATC (RADAR)
07:26PM -33.7894 150.9208 13° North 122 140 3,000  Level Aus ATC (RADAR)
07:27PM -33.7707 150.9260 17° North 119 137 3,000  Level Aus ATC (RADAR)
07:27PM -33.7441 150.9360 43° Northeast 120 138 3,000  Level Aus ATC (RADAR)
07:29PM -33.7118 150.9721 57° Northeast 122 140 3,000  Level Aus ATC (RADAR)
07:29PM -33.7005 150.9928 30° Northeast 123 142 3,000  Level Aus ATC (RADAR)
07:30PM -33.6776 151.0088 313° West 119 137 3,000  Level Aus ATC (RADAR)
07:31PM -33.6547 150.9797 283° West 113 130 3,000  Level Aus ATC (RADAR)
07:32PM -33.6503 150.9570 286° West 115 132 3,000  Level Aus ATC (RADAR)
07:33PM -33.6431 150.9275 288° West 115 132 3,000 -540 Level Aus ATC (RADAR)
07:34PM -33.6239 150.8572 287° West 110 127 1,600 -840 Descending Aus ATC (RADAR)
07:35PM -33.6146 150.8203 288° West 114 131 600 -600 Descending Aus ATC (RADAR)
07:36PM -33.6060 150.7893 290° West 114 131 500 240 Descending Aus ATC (RADAR)
07:37PM -33.5996 150.7684 312° West 110 127 1,000 960 Climbing Aus ATC (RADAR)
07:38PM -33.5834 150.7469 315° West 97 112 1,900 900 Climbing Aus ATC (RADAR)
07:39PM -33.5516 150.7092 320° Northwest 95 109 3,300 720 Climbing Aus ATC (RADAR)
07:40PM -33.5332 150.6905 315° West 93 107 3,900 600 Climbing Aus ATC (RADAR)
07:41PM -33.5151 150.6686 315° West 100 115 4,400 660 Climbing Aus ATC (RADAR)
07:42PM -33.5028 150.6537 317° Northwest 90 104 5,000 840 Climbing Aus ATC (RADAR)
07:43PM -33.4870 150.6359 316° Northwest 91 105 5,700 420 Climbing Aus ATC (RADAR)
07:45PM -33.4414 150.5836 311° West 126 145 6,200 120 Climbing Aus ATC (RADAR)
07:46PM -33.4162 150.5493 313° West 135 155 6,100 -60 Descending Aus ATC (RADAR)
07:47PM -33.3916 150.5180 311° West 137 158 6,100  Level Aus ATC (RADAR)
07:47PM -33.3772 150.4982 315° West 134 154 6,100  Level Aus ATC (RADAR)
07:49PM -33.3108 150.4196 313° West 141 162 6,200  Climbing Aus ATC (RADAR)
07:50PM -33.2943 150.3986 316° Northwest 144 166 6,100  Descending Aus ATC (RADAR)
07:51PM -33.2708 150.3719 319° Northwest 140 161 6,200  Climbing Aus ATC (RADAR)
07:52PM -33.2402 150.3398 323° Northwest 148 170 6,100 -120 Descending Aus ATC (RADAR)
07:53PM -33.2215 150.3232 325° Northwest 143 165 6,100  Level Aus ATC (RADAR)
07:54PM -33.1649 150.2755 322° Northwest 140 161 6,200  Climbing Aus ATC (RADAR)
07:55PM -33.1471 150.2589 320° Northwest 140 161 6,100 -120 Descending Aus ATC (RADAR)
07:56PM -33.1163 150.2284 319° Northwest 142 163 6,100  Level Aus ATC (RADAR)
07:57PM -33.0960 150.2072 317° Northwest 144 166 6,100  Level Aus ATC (RADAR)
07:57PM -33.0767 150.1856 319° Northwest 143 165 6,100  Level Aus ATC (RADAR)
07:58PM -33.0517 150.1596 317° Northwest 141 162 6,100  Level Aus ATC (RADAR)
07:59PM -33.0172 150.1213 317° Northwest 143 165 6,200  Climbing Aus ATC (RADAR)
08:00PM -33.0027 150.1054 319° Northwest 140 161 6,100 -120 Descending Aus ATC (RADAR)
08:01PM -32.9702 150.0717 320° Northwest 140 161 6,100  Level Aus ATC (RADAR)
08:01PM -32.9521 150.0535 320° Northwest 144 166 6,200 60 Climbing Aus ATC (RADAR)
08:02PM -32.9346 150.0362 316° Northwest 139 160 6,200  Level Aus ATC (RADAR)
08:03PM -32.9055 150.0025 318° Northwest 145 167 6,200 -60 Level Aus ATC (RADAR)
08:04PM -32.8630 149.9572 316° Northwest 144 166 6,100  Descending Aus ATC (RADAR)
08:05PM -32.8293 149.9191 317° Northwest 141 162 6,200  Climbing Aus ATC (RADAR)
08:06PM -32.8096 149.8972 318° Northwest 146 168 6,200  Level Aus ATC (RADAR)
08:07PM -32.7903 149.8767 319° Northwest 141 162 6,200  Level Aus ATC (RADAR)
08:08PM -32.7651 149.8502 322° Northwest 142 163 6,200  Level Aus ATC (RADAR)
08:08PM -32.7439 149.8306 314° West 145 167 6,200  Level Aus ATC (RADAR)
08:10PM -32.7086 149.7873 313° West 142 163 6,200 -60 Level Aus ATC (RADAR)
08:10PM -32.6836 149.7554 264° West 144 166 6,100  Descending Aus ATC (RADAR)
08:49PM -32.6968 149.6108 173° South 116 133 6,200  Climbing Aus ATC (RADAR)
08:50PM -32.7617 149.6196 174° South 147 169 6,200 -60 Level Aus ATC (RADAR)
08:51PM -32.7836 149.6224 174° South 157 181 6,100 -120 Descending Aus ATC (RADAR)
08:52PM -32.8233 149.6276 173° South 154 177 6,100  Level Aus ATC (RADAR)
08:52PM -32.8600 149.6329 173° South 162 186 6,100 60 Level Aus ATC (RADAR)
08:53PM -32.8889 149.6373 172° South 157 181 6,200  Climbing Aus ATC (RADAR)
08:54PM -32.9215 149.6426 174° South 156 180 6,100 -60 Descending Aus ATC (RADAR)
08:56PM -33.0123 149.6530 171° South 157 181 6,100  Level Aus ATC (RADAR)
08:57PM -33.0522 149.6604 174° South 161 185 6,100  Level Aus ATC (RADAR)
08:58PM -33.0877 149.6647 178° South 154 177 6,200 60 Climbing Aus ATC (RADAR)
08:58PM -33.1173 149.6658 179° South 155 178 6,200  Level Aus ATC (RADAR)
08:59PM -33.1611 149.6665 179° South 157 181 6,200  Level Aus ATC (RADAR)
09:01PM -33.2451 149.6686 187° South 157 181 6,200 -60 Level Aus ATC (RADAR)
09:02PM -33.2847 149.6628 189° South 157 181 6,100 -420 Descending Aus ATC (RADAR)
09:03PM -33.3237 149.6557 181° South 151 174 5,500 -540 Descending Aus ATC (RADAR)
09:04PM -33.3477 149.6553 177° South 151 174 5,300 -120 Descending Aus ATC (RADAR)
09:05PM -33.3826 149.6576 179° South 136 157 5,400 60 Climbing Aus ATC (RADAR)
09:06PM -33.4184 149.6586 182° South 128 147 5,500 60 Climbing Aus ATC (RADAR)
09:06PM -33.4401 149.6576 185° South 132 152 5,500  Level Aus ATC (RADAR)
09:07PM -33.4609 149.6553 208° Southwest 129 148 5,500  Level Aus ATC (RADAR)
09:08PM -33.4870 149.6387 347° North 137 158 5,500 -60 Level Aus ATC (RADAR)
09:09PM -33.4558 149.6300 41° Northeast 137 158 5,400 -120 Descending Aus ATC (RADAR)
09:09PM -33.4365 149.6504 13° North 138 159 5,400  Level Aus ATC (RADAR)
09:10PM -33.4152 149.6561 358° North 136 157 5,400 -240 Level Aus ATC (RADAR)
09:11PM -33.3700 149.6546 185° South 127 146 5,000 -60 Descending Aus ATC (RADAR)
09:22PM -33.4793 149.6428 241° Southwest 91 105 4,700  Descending Aus ATC (RADAR)
09:23PM -33.4914 149.6162 254° West 108 124 5,200 300 Climbing Aus ATC (RADAR)
09:23PM -33.4969 149.5927 50° Northeast 123 142 5,200  Level Aus ATC (RADAR)
09:24PM -33.4842 149.6110 18° North 143 165 5,200 -180 Level Aus ATC (RADAR)
09:25PM -33.4666 149.6180 32° Northeast 163 188 5,000 -60 Descending Aus ATC (RADAR)
09:26PM -33.4129 149.6583 151° Southeast 171 197 5,100 180 Climbing Aus ATC (RADAR)
09:27PM -33.4455 149.6799 144° Southeast 152 175 5,500 180 Climbing Aus ATC (RADAR)
09:28PM -33.4793 149.7089 147° Southeast 150 173 5,500 240 Level Aus ATC (RADAR)
09:29PM -33.4990 149.7245 152° Southeast 143 165 5,900 720 Climbing Aus ATC (RADAR)
09:30PM -33.5227 149.7398 146° Southeast 131 151 6,500 660 Climbing Aus ATC (RADAR)
09:30PM -33.5406 149.7545 149° Southeast 133 153 6,800 300 Climbing Aus ATC (RADAR)
09:32PM -33.5882 149.7895 146° Southeast 146 168 7,100 120 Climbing Aus ATC (RADAR)
09:32PM -33.6214 149.8163 152° Southeast 155 178 7,100  Level Aus ATC (RADAR)
09:33PM -33.6499 149.8347 148° Southeast 154 177 7,100 -120 Level Aus ATC (RADAR)
09:34PM -33.6722 149.8513 145° Southeast 160 184 7,000 60 Descending Aus ATC (RADAR)
09:35PM -33.7062 149.8795 152° Southeast 160 184 7,200 60 Climbing Aus ATC (RADAR)
09:36PM -33.7577 149.9124 163° South 159 183 7,200  Level Aus ATC (RADAR)
09:36PM -33.7792 149.9203 173° South 162 186 7,200  Level Aus ATC (RADAR)
09:37PM -33.8232 149.9266 170° South 161 185 7,200  Level Aus ATC (RADAR)
09:38PM -33.8521 149.9325 162° South 159 183 7,200  Level Aus ATC (RADAR)
09:39PM -33.8768 149.9424 110° East 161 185 7,200 -180 Level Aus ATC (RADAR)
09:40PM -33.8892 149.9830 82° East 164 189 7,000 -120 Descending Aus ATC (RADAR)
09:40PM -33.8847 150.0228 90° East 158 182 7,100 60 Climbing Aus ATC (RADAR)
09:42PM -33.8850 150.0976 101° East 158 182 7,200  Climbing Aus ATC (RADAR)
09:43PM -33.8928 150.1440 100° East 153 176 7,200 -60 Level Aus ATC (RADAR)
09:44PM -33.9003 150.1959 99° East 154 177 7,100 -60 Descending Aus ATC (RADAR)
09:44PM -33.9050 150.2310 98° East 156 180 7,100  Level Aus ATC (RADAR)
09:45PM -33.9097 150.2700 97° East 152 175 7,100  Level Aus ATC (RADAR)
09:46PM -33.9152 150.3278 97° East 161 185 7,100 -60 Level Aus ATC (RADAR)
09:47PM -33.9186 150.3632 98° East 157 181 7,000 -120 Descending Aus ATC (RADAR)
09:48PM -33.9246 150.4135 96° East 160 184 7,000 -360 Level Aus ATC (RADAR)
09:49PM -33.9292 150.4650 90° East 165 190 6,400 -720 Descending Aus ATC (RADAR)
09:49PM -33.9291 150.4985 86° East 164 189 6,000 -540 Descending Aus ATC (RADAR)
09:50PM -33.9262 150.5447 89° East 159 183 5,700 -540 Descending Aus ATC (RADAR)
09:51PM -33.9256 150.5767 93° East 162 186 5,300 -720 Descending Aus ATC (RADAR)
09:52PM -33.9298 150.6657 94° East 165 190 4,200 -840 Descending Aus ATC (RADAR)
09:53PM -33.9326 150.7135 93° East 163 188 3,400 -1,080 Descending Aus ATC (RADAR)
09:54PM -33.9346 150.7599 93° East 161 185 2,400 -1,020 Descending Aus ATC (RADAR)
09:54PM -33.9361 150.7912 92° East 157 181 2,000 -240 Descending Aus ATC (RADAR)
09:55PM -33.9373 150.8264 91° East 122 140 2,100  Climbing Aus ATC (RADAR)
09:57PM -33.9385 150.8973 61° Northeast 130 150 2,100 -240 Level Aus ATC (RADAR)
09:58PM -33.9171 150.9446 59° Northeast 146 168 1,500 -300 Descending Aus ATC (RADAR)
09:59PM -33.9026 150.9740 98° East 135 155 1,600 -120 Climbing Aus ATC (RADAR)
09:59PM -33.9055 150.9971 127° Southeast 137 158 1,400 -480 Descending Aus ATC (RADAR)
10:00PM -33.9237 151.0262 127° Southeast 125 144 1,000 -480 Descending Aus ATC (RADAR)